sensor_id;sensor_type;location;lat;lon;timestamp;P1;durP1;ratioP1;P2;durP2;ratioP2
21810;SDS011;11067;48.788;9.208;2024-02-14T00:01:16;10.60;;;6.68;;
21810;SDS011;11067;48.788;9.208;2024-02-14T00:03:41;12.70;;;7.17;;
21810;SDS011;11067;48.788;9.208;2024-02-14T00:06:07;10.82;;;6.63;;
21810;SDS011;11067;48.788;9.208;2024-02-14T00:08:33;9.35;;;6.90;;
21810;SDS011;11067;48.788;9.208;2024-02-14T00:10:58;11.40;;;7.03;;
21810;SDS011;11067;48.788;9.208;2024-02-14T00:13:25;11.43;;;6.68;;
21810;SDS011;11067;48.788;9.208;2024-02-14T00:15:50;11.70;;;7.10;;
21810;SDS011;11067;48.788;9.208;2024-02-14T00:18:16;13.40;;;7.30;;
21810;SDS011;11067;48.788;9.208;2024-02-14T00:20:41;10.03;;;6.93;;
21810;SDS011;11067;48.788;9.208;2024-02-14T00:23:07;11.63;;;7.00;;
21810;SDS011;11067;48.788;9.208;2024-02-14T00:25:33;12.37;;;6.93;;
21810;SDS011;11067;48.788;9.208;2024-02-14T00:27:58;11.50;;;7.30;;
21810;SDS011;11067;48.788;9.208;2024-02-14T00:30:28;11.35;;;6.80;;
21810;SDS011;11067;48.788;9.208;2024-02-14T00:32:54;12.00;;;7.18;;
21810;SDS011;11067;48.788;9.208;2024-02-14T00:35:20;8.98;;;6.63;;
21810;SDS011;11067;48.788;9.208;2024-02-14T00:37:46;11.52;;;7.00;;
21810;SDS011;11067;48.788;9.208;2024-02-14T00:40:11;11.48;;;7.38;;
21810;SDS011;11067;48.788;9.208;2024-02-14T00:42:37;12.77;;;6.95;;
21810;SDS011;11067;48.788;9.208;2024-02-14T00:45:02;10.80;;;6.78;;
21810;SDS011;11067;48.788;9.208;2024-02-14T00:47:29;10.85;;;6.70;;
21810;SDS011;11067;48.788;9.208;2024-02-14T00:49:54;11.82;;;6.90;;
21810;SDS011;11067;48.788;9.208;2024-02-14T00:52:19;9.98;;;6.55;;
21810;SDS011;11067;48.788;9.208;2024-02-14T00:54:46;8.93;;;6.05;;
21810;SDS011;11067;48.788;9.208;2024-02-14T00:57:12;13.25;;;6.53;;
21810;SDS011;11067;48.788;9.208;2024-02-14T00:59:37;10.67;;;6.47;;
21810;SDS011;11067;48.788;9.208;2024-02-14T01:02:03;9.98;;;5.97;;
21810;SDS011;11067;48.788;9.208;2024-02-14T01:04:29;9.68;;;6.63;;
21810;SDS011;11067;48.788;9.208;2024-02-14T01:06:55;9.63;;;6.40;;
21810;SDS011;11067;48.788;9.208;2024-02-14T01:09:20;10.13;;;6.82;;
21810;SDS011;11067;48.788;9.208;2024-02-14T01:11:46;9.63;;;6.60;;
21810;SDS011;11067;48.788;9.208;2024-02-14T01:14:13;9.95;;;6.25;;
21810;SDS011;11067;48.788;9.208;2024-02-14T01:16:43;10.93;;;6.20;;
21810;SDS011;11067;48.788;9.208;2024-02-14T01:19:11;9.43;;;6.57;;
21810;SDS011;11067;48.788;9.208;2024-02-14T01:21:37;9.65;;;6.32;;
21810;SDS011;11067;48.788;9.208;2024-02-14T01:24:03;9.87;;;6.47;;
21810;SDS011;11067;48.788;9.208;2024-02-14T01:26:30;9.52;;;6.43;;
21810;SDS011;11067;48.788;9.208;2024-02-14T01:28:56;9.13;;;6.57;;
21810;SDS011;11067;48.788;9.208;2024-02-14T01:31:21;9.57;;;6.10;;
21810;SDS011;11067;48.788;9.208;2024-02-14T01:33:47;11.60;;;6.37;;
21810;SDS011;11067;48.788;9.208;2024-02-14T01:36:13;8.60;;;6.47;;
21810;SDS011;11067;48.788;9.208;2024-02-14T01:38:38;10.13;;;6.33;;
21810;SDS011;11067;48.788;9.208;2024-02-14T01:41:04;8.57;;;6.33;;
21810;SDS011;11067;48.788;9.208;2024-02-14T01:43:30;12.10;;;6.97;;
21810;SDS011;11067;48.788;9.208;2024-02-14T01:45:57;12.15;;;6.38;;
21810;SDS011;11067;48.788;9.208;2024-02-14T01:48:31;11.68;;;6.78;;
21810;SDS011;11067;48.788;9.208;2024-02-14T01:50:58;10.23;;;6.68;;
21810;SDS011;11067;48.788;9.208;2024-02-14T01:53:25;11.35;;;6.85;;
21810;SDS011;11067;48.788;9.208;2024-02-14T01:55:51;11.20;;;6.50;;
21810;SDS011;11067;48.788;9.208;2024-02-14T01:58:17;9.52;;;6.68;;
21810;SDS011;11067;48.788;9.208;2024-02-14T02:00:43;11.18;;;6.43;;
21810;SDS011;11067;48.788;9.208;2024-02-14T02:03:10;9.30;;;6.40;;
21810;SDS011;11067;48.788;9.208;2024-02-14T02:05:36;9.63;;;6.13;;
21810;SDS011;11067;48.788;9.208;2024-02-14T02:08:01;10.80;;;5.63;;
21810;SDS011;11067;48.788;9.208;2024-02-14T02:10:27;11.98;;;6.40;;
21810;SDS011;11067;48.788;9.208;2024-02-14T02:12:59;10.38;;;6.07;;
21810;SDS011;11067;48.788;9.208;2024-02-14T02:15:25;12.30;;;6.40;;
21810;SDS011;11067;48.788;9.208;2024-02-14T02:17:52;12.23;;;6.13;;
21810;SDS011;11067;48.788;9.208;2024-02-14T02:20:18;9.50;;;6.25;;
21810;SDS011;11067;48.788;9.208;2024-02-14T02:22:45;8.23;;;6.00;;
21810;SDS011;11067;48.788;9.208;2024-02-14T02:25:12;10.70;;;6.15;;
21810;SDS011;11067;48.788;9.208;2024-02-14T02:27:38;9.43;;;5.70;;
21810;SDS011;11067;48.788;9.208;2024-02-14T02:30:05;11.23;;;5.78;;
21810;SDS011;11067;48.788;9.208;2024-02-14T02:32:31;9.65;;;5.55;;
21810;SDS011;11067;48.788;9.208;2024-02-14T02:34:57;6.60;;;5.38;;
21810;SDS011;11067;48.788;9.208;2024-02-14T02:37:23;8.00;;;5.43;;
21810;SDS011;11067;48.788;9.208;2024-02-14T02:39:50;11.33;;;5.40;;
21810;SDS011;11067;48.788;9.208;2024-02-14T02:42:16;9.38;;;5.88;;
21810;SDS011;11067;48.788;9.208;2024-02-14T02:44:45;9.57;;;5.65;;
21810;SDS011;11067;48.788;9.208;2024-02-14T02:47:11;8.57;;;5.63;;
21810;SDS011;11067;48.788;9.208;2024-02-14T02:49:37;8.23;;;5.75;;
21810;SDS011;11067;48.788;9.208;2024-02-14T02:52:03;10.82;;;5.65;;
21810;SDS011;11067;48.788;9.208;2024-02-14T02:54:29;9.85;;;5.80;;
21810;SDS011;11067;48.788;9.208;2024-02-14T02:56:54;9.40;;;5.80;;
21810;SDS011;11067;48.788;9.208;2024-02-14T02:59:20;8.47;;;5.30;;
21810;SDS011;11067;48.788;9.208;2024-02-14T03:01:46;8.80;;;5.73;;
21810;SDS011;11067;48.788;9.208;2024-02-14T03:04:14;13.10;;;5.80;;
21810;SDS011;11067;48.788;9.208;2024-02-14T03:06:40;8.97;;;5.90;;
21810;SDS011;11067;48.788;9.208;2024-02-14T03:09:05;6.90;;;5.07;;
21810;SDS011;11067;48.788;9.208;2024-02-14T03:11:32;7.97;;;5.43;;
21810;SDS011;11067;48.788;9.208;2024-02-14T03:13:58;8.03;;;5.83;;
21810;SDS011;11067;48.788;9.208;2024-02-14T03:16:23;7.80;;;5.55;;
21810;SDS011;11067;48.788;9.208;2024-02-14T03:18:49;7.43;;;5.87;;
21810;SDS011;11067;48.788;9.208;2024-02-14T03:21:15;8.93;;;5.43;;
21810;SDS011;11067;48.788;9.208;2024-02-14T03:23:40;8.13;;;5.80;;
21810;SDS011;11067;48.788;9.208;2024-02-14T03:26:06;8.65;;;5.70;;
21810;SDS011;11067;48.788;9.208;2024-02-14T03:28:33;8.10;;;5.73;;
21810;SDS011;11067;48.788;9.208;2024-02-14T03:30:59;10.53;;;5.27;;
21810;SDS011;11067;48.788;9.208;2024-02-14T03:33:24;9.87;;;5.97;;
21810;SDS011;11067;48.788;9.208;2024-02-14T03:35:50;10.23;;;5.80;;
21810;SDS011;11067;48.788;9.208;2024-02-14T03:38:28;7.93;;;5.73;;
21810;SDS011;11067;48.788;9.208;2024-02-14T03:40:54;8.95;;;5.85;;
21810;SDS011;11067;48.788;9.208;2024-02-14T03:43:19;9.33;;;6.10;;
21810;SDS011;11067;48.788;9.208;2024-02-14T03:45:46;8.50;;;6.00;;
21810;SDS011;11067;48.788;9.208;2024-02-14T03:48:12;8.95;;;5.97;;
21810;SDS011;11067;48.788;9.208;2024-02-14T03:50:38;8.37;;;5.70;;
21810;SDS011;11067;48.788;9.208;2024-02-14T03:53:04;7.85;;;5.78;;
21810;SDS011;11067;48.788;9.208;2024-02-14T03:55:29;11.13;;;5.40;;
21810;SDS011;11067;48.788;9.208;2024-02-14T03:57:55;9.32;;;5.50;;
21810;SDS011;11067;48.788;9.208;2024-02-14T04:00:21;9.43;;;5.45;;
21810;SDS011;11067;48.788;9.208;2024-02-14T04:02:47;8.75;;;5.22;;
21810;SDS011;11067;48.788;9.208;2024-02-14T04:05:14;9.52;;;5.40;;
21810;SDS011;11067;48.788;9.208;2024-02-14T04:07:39;8.88;;;5.43;;
21810;SDS011;11067;48.788;9.208;2024-02-14T04:10:05;8.53;;;5.13;;
21810;SDS011;11067;48.788;9.208;2024-02-14T04:12:31;8.52;;;5.25;;
21810;SDS011;11067;48.788;9.208;2024-02-14T04:14:57;9.40;;;5.22;;
21810;SDS011;11067;48.788;9.208;2024-02-14T04:17:23;8.55;;;5.60;;
21810;SDS011;11067;48.788;9.208;2024-02-14T04:19:49;8.75;;;5.80;;
21810;SDS011;11067;48.788;9.208;2024-02-14T04:22:15;10.23;;;6.43;;
21810;SDS011;11067;48.788;9.208;2024-02-14T04:24:40;10.85;;;6.47;;
21810;SDS011;11067;48.788;9.208;2024-02-14T04:27:06;10.55;;;6.00;;
21810;SDS011;11067;48.788;9.208;2024-02-14T04:29:32;9.18;;;5.72;;
21810;SDS011;11067;48.788;9.208;2024-02-14T04:31:59;9.18;;;6.05;;
21810;SDS011;11067;48.788;9.208;2024-02-14T04:34:25;9.30;;;6.15;;
21810;SDS011;11067;48.788;9.208;2024-02-14T04:36:50;9.18;;;6.15;;
21810;SDS011;11067;48.788;9.208;2024-02-14T04:39:16;8.20;;;5.93;;
21810;SDS011;11067;48.788;9.208;2024-02-14T04:41:42;10.43;;;5.37;;
21810;SDS011;11067;48.788;9.208;2024-02-14T04:44:08;7.33;;;5.53;;
21810;SDS011;11067;48.788;9.208;2024-02-14T04:46:33;10.10;;;5.90;;
21810;SDS011;11067;48.788;9.208;2024-02-14T04:49:00;8.90;;;5.90;;
21810;SDS011;11067;48.788;9.208;2024-02-14T04:51:28;11.15;;;5.72;;
21810;SDS011;11067;48.788;9.208;2024-02-14T04:53:54;9.15;;;6.05;;
21810;SDS011;11067;48.788;9.208;2024-02-14T04:56:23;10.23;;;5.68;;
21810;SDS011;11067;48.788;9.208;2024-02-14T04:58:49;10.05;;;6.05;;
21810;SDS011;11067;48.788;9.208;2024-02-14T05:01:15;12.77;;;6.13;;
21810;SDS011;11067;48.788;9.208;2024-02-14T05:03:40;11.07;;;6.33;;
21810;SDS011;11067;48.788;9.208;2024-02-14T05:06:06;11.17;;;6.13;;
21810;SDS011;11067;48.788;9.208;2024-02-14T05:08:31;11.32;;;5.35;;
21810;SDS011;11067;48.788;9.208;2024-02-14T05:10:57;8.82;;;5.80;;
21810;SDS011;11067;48.788;9.208;2024-02-14T05:13:22;8.48;;;5.38;;
21810;SDS011;11067;48.788;9.208;2024-02-14T05:15:48;9.93;;;5.50;;
21810;SDS011;11067;48.788;9.208;2024-02-14T05:18:16;6.78;;;5.40;;
21810;SDS011;11067;48.788;9.208;2024-02-14T05:20:41;8.63;;;5.40;;
21810;SDS011;11067;48.788;9.208;2024-02-14T05:23:07;8.87;;;5.70;;
21810;SDS011;11067;48.788;9.208;2024-02-14T05:25:34;11.30;;;6.47;;
21810;SDS011;11067;48.788;9.208;2024-02-14T05:27:59;9.37;;;6.20;;
21810;SDS011;11067;48.788;9.208;2024-02-14T05:30:26;10.17;;;6.30;;
21810;SDS011;11067;48.788;9.208;2024-02-14T05:32:51;11.55;;;5.90;;
21810;SDS011;11067;48.788;9.208;2024-02-14T05:35:20;10.10;;;5.68;;
21810;SDS011;11067;48.788;9.208;2024-02-14T05:37:47;11.20;;;5.40;;
21810;SDS011;11067;48.788;9.208;2024-02-14T05:40:14;11.57;;;5.80;;
21810;SDS011;11067;48.788;9.208;2024-02-14T05:42:40;8.40;;;5.82;;
21810;SDS011;11067;48.788;9.208;2024-02-14T05:45:06;9.53;;;5.50;;
21810;SDS011;11067;48.788;9.208;2024-02-14T05:47:34;9.38;;;5.90;;
21810;SDS011;11067;48.788;9.208;2024-02-14T05:50:00;8.88;;;5.60;;
21810;SDS011;11067;48.788;9.208;2024-02-14T05:52:26;11.55;;;5.93;;
21810;SDS011;11067;48.788;9.208;2024-02-14T05:54:51;9.35;;;6.05;;
21810;SDS011;11067;48.788;9.208;2024-02-14T05:57:17;9.18;;;5.85;;
21810;SDS011;11067;48.788;9.208;2024-02-14T05:59:43;9.95;;;5.75;;
21810;SDS011;11067;48.788;9.208;2024-02-14T06:02:08;9.93;;;5.97;;
21810;SDS011;11067;48.788;9.208;2024-02-14T06:04:34;11.27;;;5.90;;
21810;SDS011;11067;48.788;9.208;2024-02-14T06:07:00;14.45;;;6.50;;
21810;SDS011;11067;48.788;9.208;2024-02-14T06:09:27;10.73;;;5.73;;
21810;SDS011;11067;48.788;9.208;2024-02-14T06:11:53;14.70;;;6.10;;
21810;SDS011;11067;48.788;9.208;2024-02-14T06:14:18;9.20;;;5.87;;
21810;SDS011;11067;48.788;9.208;2024-02-14T06:16:44;11.87;;;5.73;;
21810;SDS011;11067;48.788;9.208;2024-02-14T06:19:09;9.48;;;5.30;;
21810;SDS011;11067;48.788;9.208;2024-02-14T06:21:36;9.05;;;4.90;;
21810;SDS011;11067;48.788;9.208;2024-02-14T06:24:02;8.80;;;5.35;;
21810;SDS011;11067;48.788;9.208;2024-02-14T06:26:29;8.80;;;5.20;;
21810;SDS011;11067;48.788;9.208;2024-02-14T06:28:55;10.57;;;5.60;;
21810;SDS011;11067;48.788;9.208;2024-02-14T06:31:21;8.48;;;5.60;;
21810;SDS011;11067;48.788;9.208;2024-02-14T06:33:47;9.38;;;5.90;;
21810;SDS011;11067;48.788;9.208;2024-02-14T06:36:13;11.17;;;6.17;;
21810;SDS011;11067;48.788;9.208;2024-02-14T06:38:38;10.27;;;6.17;;
21810;SDS011;11067;48.788;9.208;2024-02-14T06:41:05;10.87;;;6.10;;
21810;SDS011;11067;48.788;9.208;2024-02-14T06:43:30;9.05;;;5.20;;
21810;SDS011;11067;48.788;9.208;2024-02-14T06:45:56;7.57;;;5.15;;
21810;SDS011;11067;48.788;9.208;2024-02-14T06:48:22;7.53;;;4.88;;
21810;SDS011;11067;48.788;9.208;2024-02-14T06:50:49;7.30;;;4.65;;
21810;SDS011;11067;48.788;9.208;2024-02-14T06:53:15;11.70;;;4.43;;
21810;SDS011;11067;48.788;9.208;2024-02-14T06:55:40;7.67;;;4.37;;
21810;SDS011;11067;48.788;9.208;2024-02-14T06:58:06;9.53;;;4.80;;
21810;SDS011;11067;48.788;9.208;2024-02-14T07:00:31;9.63;;;4.15;;
21810;SDS011;11067;48.788;9.208;2024-02-14T07:02:57;7.40;;;4.67;;
21810;SDS011;11067;48.788;9.208;2024-02-14T07:05:23;7.37;;;4.30;;
21810;SDS011;11067;48.788;9.208;2024-02-14T07:07:48;8.48;;;4.18;;
21810;SDS011;11067;48.788;9.208;2024-02-14T07:10:14;6.57;;;3.90;;
21810;SDS011;11067;48.788;9.208;2024-02-14T07:12:40;10.77;;;4.30;;
21810;SDS011;11067;48.788;9.208;2024-02-14T07:15:06;8.10;;;4.43;;
21810;SDS011;11067;48.788;9.208;2024-02-14T07:17:33;7.10;;;3.90;;
21810;SDS011;11067;48.788;9.208;2024-02-14T07:19:58;4.53;;;2.90;;
21810;SDS011;11067;48.788;9.208;2024-02-14T07:22:24;7.43;;;3.80;;
21810;SDS011;11067;48.788;9.208;2024-02-14T07:24:49;6.68;;;3.13;;
21810;SDS011;11067;48.788;9.208;2024-02-14T07:27:15;6.73;;;4.10;;
21810;SDS011;11067;48.788;9.208;2024-02-14T07:29:41;4.85;;;3.05;;
21810;SDS011;11067;48.788;9.208;2024-02-14T07:32:07;8.07;;;4.38;;
21810;SDS011;11067;48.788;9.208;2024-02-14T07:34:32;11.38;;;5.35;;
21810;SDS011;11067;48.788;9.208;2024-02-14T07:36:58;8.27;;;5.10;;
21810;SDS011;11067;48.788;9.208;2024-02-14T07:39:32;9.60;;;5.20;;
21810;SDS011;11067;48.788;9.208;2024-02-14T07:41:59;8.18;;;5.30;;
21810;SDS011;11067;48.788;9.208;2024-02-14T07:44:25;9.75;;;5.18;;
21810;SDS011;11067;48.788;9.208;2024-02-14T07:46:51;12.13;;;4.95;;
21810;SDS011;11067;48.788;9.208;2024-02-14T07:49:18;9.20;;;5.57;;
21810;SDS011;11067;48.788;9.208;2024-02-14T07:51:44;7.88;;;5.35;;
21810;SDS011;11067;48.788;9.208;2024-02-14T07:54:10;10.70;;;5.13;;
21810;SDS011;11067;48.788;9.208;2024-02-14T07:56:35;9.55;;;5.10;;
21810;SDS011;11067;48.788;9.208;2024-02-14T07:59:01;7.57;;;4.07;;
21810;SDS011;11067;48.788;9.208;2024-02-14T08:01:27;8.63;;;4.72;;
21810;SDS011;11067;48.788;9.208;2024-02-14T08:03:55;9.25;;;4.75;;
21810;SDS011;11067;48.788;9.208;2024-02-14T08:06:20;9.67;;;4.73;;
21810;SDS011;11067;48.788;9.208;2024-02-14T08:08:46;8.88;;;4.95;;
21810;SDS011;11067;48.788;9.208;2024-02-14T08:11:14;9.40;;;5.03;;
21810;SDS011;11067;48.788;9.208;2024-02-14T08:13:39;8.68;;;4.82;;
21810;SDS011;11067;48.788;9.208;2024-02-14T08:16:06;8.52;;;4.88;;
21810;SDS011;11067;48.788;9.208;2024-02-14T08:18:32;7.17;;;4.70;;
21810;SDS011;11067;48.788;9.208;2024-02-14T08:20:57;8.00;;;4.63;;
21810;SDS011;11067;48.788;9.208;2024-02-14T08:23:23;7.67;;;4.77;;
21810;SDS011;11067;48.788;9.208;2024-02-14T08:25:48;7.22;;;4.10;;
21810;SDS011;11067;48.788;9.208;2024-02-14T08:28:14;7.10;;;4.20;;
21810;SDS011;11067;48.788;9.208;2024-02-14T08:30:40;6.50;;;4.18;;
21810;SDS011;11067;48.788;9.208;2024-02-14T08:33:05;5.88;;;3.65;;
21810;SDS011;11067;48.788;9.208;2024-02-14T08:35:31;8.07;;;3.60;;
21810;SDS011;11067;48.788;9.208;2024-02-14T08:37:57;5.95;;;3.63;;
21810;SDS011;11067;48.788;9.208;2024-02-14T08:40:23;9.43;;;4.20;;
21810;SDS011;11067;48.788;9.208;2024-02-14T08:42:49;7.32;;;4.07;;
21810;SDS011;11067;48.788;9.208;2024-02-14T08:45:14;6.90;;;4.00;;
21810;SDS011;11067;48.788;9.208;2024-02-14T08:47:40;5.53;;;3.83;;
21810;SDS011;11067;48.788;9.208;2024-02-14T08:50:09;9.70;;;4.20;;
21810;SDS011;11067;48.788;9.208;2024-02-14T08:52:34;8.43;;;3.85;;
21810;SDS011;11067;48.788;9.208;2024-02-14T08:55:02;9.32;;;4.22;;
21810;SDS011;11067;48.788;9.208;2024-02-14T08:57:29;6.82;;;4.20;;
21810;SDS011;11067;48.788;9.208;2024-02-14T08:59:56;6.53;;;3.90;;
21810;SDS011;11067;48.788;9.208;2024-02-14T09:02:22;7.88;;;4.28;;
21810;SDS011;11067;48.788;9.208;2024-02-14T09:04:47;6.83;;;3.87;;
21810;SDS011;11067;48.788;9.208;2024-02-14T09:07:13;9.83;;;4.70;;
21810;SDS011;11067;48.788;9.208;2024-02-14T09:09:39;10.13;;;4.67;;
21810;SDS011;11067;48.788;9.208;2024-02-14T09:12:04;5.57;;;4.15;;
21810;SDS011;11067;48.788;9.208;2024-02-14T09:14:30;7.07;;;4.45;;
21810;SDS011;11067;48.788;9.208;2024-02-14T09:16:56;7.80;;;4.53;;
21810;SDS011;11067;48.788;9.208;2024-02-14T09:19:22;12.13;;;4.97;;
21810;SDS011;11067;48.788;9.208;2024-02-14T09:21:48;7.63;;;5.03;;
21810;SDS011;11067;48.788;9.208;2024-02-14T09:24:14;8.07;;;5.13;;
21810;SDS011;11067;48.788;9.208;2024-02-14T09:26:39;9.67;;;5.10;;
21810;SDS011;11067;48.788;9.208;2024-02-14T09:29:05;9.30;;;5.63;;
21810;SDS011;11067;48.788;9.208;2024-02-14T09:31:31;10.53;;;4.90;;
21810;SDS011;11067;48.788;9.208;2024-02-14T09:33:56;7.82;;;4.80;;
21810;SDS011;11067;48.788;9.208;2024-02-14T09:36:23;9.70;;;5.57;;
21810;SDS011;11067;48.788;9.208;2024-02-14T09:38:49;11.93;;;5.15;;
21810;SDS011;11067;48.788;9.208;2024-02-14T09:41:20;10.10;;;4.97;;
21810;SDS011;11067;48.788;9.208;2024-02-14T09:43:51;10.63;;;4.73;;
21810;SDS011;11067;48.788;9.208;2024-02-14T09:46:17;7.90;;;5.07;;
21810;SDS011;11067;48.788;9.208;2024-02-14T09:48:43;10.93;;;5.00;;
21810;SDS011;11067;48.788;9.208;2024-02-14T09:51:09;10.90;;;4.75;;
21810;SDS011;11067;48.788;9.208;2024-02-14T09:53:35;9.85;;;4.25;;
21810;SDS011;11067;48.788;9.208;2024-02-14T09:56:01;2.27;;;1.50;;
21810;SDS011;11067;48.788;9.208;2024-02-14T09:58:27;2.40;;;1.60;;
21810;SDS011;11067;48.788;9.208;2024-02-14T10:00:54;2.70;;;1.50;;
21810;SDS011;11067;48.788;9.208;2024-02-14T10:03:19;3.43;;;1.60;;
21810;SDS011;11067;48.788;9.208;2024-02-14T10:05:45;2.63;;;1.43;;
21810;SDS011;11067;48.788;9.208;2024-02-14T10:08:10;2.53;;;1.40;;
21810;SDS011;11067;48.788;9.208;2024-02-14T10:10:37;1.87;;;1.40;;
21810;SDS011;11067;48.788;9.208;2024-02-14T10:13:03;3.42;;;1.40;;
21810;SDS011;11067;48.788;9.208;2024-02-14T10:15:31;3.63;;;1.42;;
21810;SDS011;11067;48.788;9.208;2024-02-14T10:17:59;1.50;;;1.25;;
21810;SDS011;11067;48.788;9.208;2024-02-14T10:20:25;2.20;;;1.20;;
21810;SDS011;11067;48.788;9.208;2024-02-14T10:22:52;7.47;;;1.40;;
21810;SDS011;11067;48.788;9.208;2024-02-14T10:25:25;4.88;;;2.85;;
21810;SDS011;11067;48.788;9.208;2024-02-14T10:27:50;4.00;;;1.80;;
21810;SDS011;11067;48.788;9.208;2024-02-14T10:30:16;2.10;;;1.20;;
21810;SDS011;11067;48.788;9.208;2024-02-14T10:32:41;3.70;;;1.33;;
21810;SDS011;11067;48.788;9.208;2024-02-14T10:35:12;1.23;;;1.00;;
21810;SDS011;11067;48.788;9.208;2024-02-14T10:37:38;2.10;;;1.00;;
21810;SDS011;11067;48.788;9.208;2024-02-14T10:40:04;3.67;;;1.35;;
21810;SDS011;11067;48.788;9.208;2024-02-14T10:42:31;2.13;;;1.10;;
21810;SDS011;11067;48.788;9.208;2024-02-14T10:44:58;2.30;;;1.30;;
21810;SDS011;11067;48.788;9.208;2024-02-14T10:47:30;2.22;;;1.08;;
21810;SDS011;11067;48.788;9.208;2024-02-14T10:50:00;3.00;;;1.00;;
21810;SDS011;11067;48.788;9.208;2024-02-14T10:52:30;2.42;;;1.25;;
21810;SDS011;11067;48.788;9.208;2024-02-14T10:55:01;3.90;;;1.23;;
21810;SDS011;11067;48.788;9.208;2024-02-14T10:57:28;1.40;;;1.00;;
21810;SDS011;11067;48.788;9.208;2024-02-14T10:59:55;1.00;;;0.90;;
21810;SDS011;11067;48.788;9.208;2024-02-14T11:02:22;1.70;;;1.25;;
21810;SDS011;11067;48.788;9.208;2024-02-14T11:04:48;2.08;;;1.10;;
21810;SDS011;11067;48.788;9.208;2024-02-14T11:07:18;3.40;;;1.25;;
21810;SDS011;11067;48.788;9.208;2024-02-14T11:09:45;2.53;;;1.05;;
21810;SDS011;11067;48.788;9.208;2024-02-14T11:12:10;2.67;;;1.17;;
21810;SDS011;11067;48.788;9.208;2024-02-14T11:14:37;1.30;;;0.90;;
21810;SDS011;11067;48.788;9.208;2024-02-14T11:17:04;1.20;;;1.00;;
21810;SDS011;11067;48.788;9.208;2024-02-14T11:19:34;2.45;;;1.70;;
21810;SDS011;11067;48.788;9.208;2024-02-14T11:22:13;3.70;;;1.13;;
21810;SDS011;11067;48.788;9.208;2024-02-14T11:24:45;2.55;;;1.10;;
21810;SDS011;11067;48.788;9.208;2024-02-14T11:27:11;2.93;;;1.13;;
21810;SDS011;11067;48.788;9.208;2024-02-14T11:29:40;1.50;;;0.90;;
21810;SDS011;11067;48.788;9.208;2024-02-14T11:32:15;1.77;;;0.90;;
21810;SDS011;11067;48.788;9.208;2024-02-14T11:34:42;1.10;;;0.83;;
21810;SDS011;11067;48.788;9.208;2024-02-14T11:37:08;0.90;;;0.90;;
21810;SDS011;11067;48.788;9.208;2024-02-14T11:39:34;2.37;;;0.73;;
21810;SDS011;11067;48.788;9.208;2024-02-14T11:42:00;2.60;;;1.00;;
21810;SDS011;11067;48.788;9.208;2024-02-14T11:44:26;1.33;;;1.10;;
21810;SDS011;11067;48.788;9.208;2024-02-14T11:46:52;1.40;;;0.90;;
21810;SDS011;11067;48.788;9.208;2024-02-14T11:49:17;0.88;;;0.80;;
21810;SDS011;11067;48.788;9.208;2024-02-14T11:51:43;2.33;;;0.93;;
21810;SDS011;11067;48.788;9.208;2024-02-14T11:54:09;4.63;;;0.90;;
21810;SDS011;11067;48.788;9.208;2024-02-14T11:56:35;1.10;;;0.80;;
21810;SDS011;11067;48.788;9.208;2024-02-14T11:59:05;2.13;;;1.02;;
21810;SDS011;11067;48.788;9.208;2024-02-14T12:01:35;2.08;;;1.13;;
21810;SDS011;11067;48.788;9.208;2024-02-14T12:04:04;1.33;;;1.00;;
21810;SDS011;11067;48.788;9.208;2024-02-14T12:06:32;1.08;;;0.90;;
21810;SDS011;11067;48.788;9.208;2024-02-14T12:09:05;2.25;;;0.90;;
21810;SDS011;11067;48.788;9.208;2024-02-14T12:11:31;1.52;;;0.90;;
21810;SDS011;11067;48.788;9.208;2024-02-14T12:14:02;1.20;;;0.90;;
21810;SDS011;11067;48.788;9.208;2024-02-14T12:16:31;2.10;;;0.98;;
21810;SDS011;11067;48.788;9.208;2024-02-14T12:19:04;1.20;;;0.85;;
21810;SDS011;11067;48.788;9.208;2024-02-14T12:21:37;2.05;;;1.48;;
21810;SDS011;11067;48.788;9.208;2024-02-14T12:24:07;1.92;;;1.40;;
21810;SDS011;11067;48.788;9.208;2024-02-14T12:26:36;0.88;;;0.70;;
21810;SDS011;11067;48.788;9.208;2024-02-14T12:29:03;1.88;;;1.13;;
21810;SDS011;11067;48.788;9.208;2024-02-14T12:31:30;0.80;;;0.55;;
21810;SDS011;11067;48.788;9.208;2024-02-14T12:33:59;1.40;;;0.70;;
21810;SDS011;11067;48.788;9.208;2024-02-14T12:36:27;1.33;;;0.73;;
21810;SDS011;11067;48.788;9.208;2024-02-14T12:38:54;4.70;;;0.80;;
21810;SDS011;11067;48.788;9.208;2024-02-14T12:41:20;1.10;;;0.50;;
21810;SDS011;11067;48.788;9.208;2024-02-14T12:43:47;1.33;;;0.80;;
21810;SDS011;11067;48.788;9.208;2024-02-14T12:46:13;1.45;;;0.75;;
21810;SDS011;11067;48.788;9.208;2024-02-14T12:48:39;1.47;;;0.57;;
21810;SDS011;11067;48.788;9.208;2024-02-14T12:51:04;1.30;;;0.60;;
21810;SDS011;11067;48.788;9.208;2024-02-14T12:53:30;1.67;;;0.70;;
21810;SDS011;11067;48.788;9.208;2024-02-14T12:55:55;0.83;;;0.70;;
21810;SDS011;11067;48.788;9.208;2024-02-14T12:58:21;1.73;;;0.90;;
21810;SDS011;11067;48.788;9.208;2024-02-14T13:00:47;2.63;;;0.60;;
21810;SDS011;11067;48.788;9.208;2024-02-14T13:03:12;0.60;;;0.57;;
21810;SDS011;11067;48.788;9.208;2024-02-14T13:05:38;0.53;;;0.47;;
21810;SDS011;11067;48.788;9.208;2024-02-14T13:08:05;1.58;;;0.50;;
21810;SDS011;11067;48.788;9.208;2024-02-14T13:10:31;0.53;;;0.53;;
21810;SDS011;11067;48.788;9.208;2024-02-14T13:12:57;2.20;;;0.60;;
21810;SDS011;11067;48.788;9.208;2024-02-14T13:15:22;0.80;;;0.60;;
21810;SDS011;11067;48.788;9.208;2024-02-14T13:17:48;1.20;;;0.70;;
21810;SDS011;11067;48.788;9.208;2024-02-14T13:20:14;0.90;;;0.50;;
21810;SDS011;11067;48.788;9.208;2024-02-14T13:22:40;0.80;;;0.50;;
21810;SDS011;11067;48.788;9.208;2024-02-14T13:25:07;1.77;;;0.87;;
21810;SDS011;11067;48.788;9.208;2024-02-14T13:27:33;3.08;;;1.50;;
21810;SDS011;11067;48.788;9.208;2024-02-14T13:30:00;0.68;;;0.60;;
21810;SDS011;11067;48.788;9.208;2024-02-14T13:32:28;0.75;;;0.50;;
21810;SDS011;11067;48.788;9.208;2024-02-14T13:34:54;1.40;;;0.80;;
21810;SDS011;11067;48.788;9.208;2024-02-14T13:37:19;2.53;;;0.90;;
21810;SDS011;11067;48.788;9.208;2024-02-14T13:39:46;1.00;;;0.70;;
21810;SDS011;11067;48.788;9.208;2024-02-14T13:42:11;1.20;;;1.00;;
21810;SDS011;11067;48.788;9.208;2024-02-14T13:44:37;1.00;;;0.90;;
21810;SDS011;11067;48.788;9.208;2024-02-14T13:47:02;2.40;;;1.23;;
21810;SDS011;11067;48.788;9.208;2024-02-14T13:49:28;3.15;;;0.95;;
21810;SDS011;11067;48.788;9.208;2024-02-14T13:51:54;2.95;;;1.42;;
21810;SDS011;11067;48.788;9.208;2024-02-14T13:54:19;1.10;;;0.70;;
21810;SDS011;11067;48.788;9.208;2024-02-14T13:56:49;0.80;;;0.60;;
21810;SDS011;11067;48.788;9.208;2024-02-14T13:59:15;1.80;;;1.08;;
21810;SDS011;11067;48.788;9.208;2024-02-14T14:01:41;2.73;;;1.10;;
21810;SDS011;11067;48.788;9.208;2024-02-14T14:04:07;2.03;;;0.70;;
21810;SDS011;11067;48.788;9.208;2024-02-14T14:06:32;5.25;;;1.20;;
21810;SDS011;11067;48.788;9.208;2024-02-14T14:08:59;0.90;;;0.60;;
21810;SDS011;11067;48.788;9.208;2024-02-14T14:11:25;1.83;;;1.00;;
21810;SDS011;11067;48.788;9.208;2024-02-14T14:13:50;0.47;;;0.47;;
21810;SDS011;11067;48.788;9.208;2024-02-14T14:16:16;0.65;;;0.60;;
21810;SDS011;11067;48.788;9.208;2024-02-14T14:18:42;1.10;;;0.68;;
21810;SDS011;11067;48.788;9.208;2024-02-14T14:21:08;0.80;;;0.70;;
21810;SDS011;11067;48.788;9.208;2024-02-14T14:23:33;2.10;;;0.50;;
21810;SDS011;11067;48.788;9.208;2024-02-14T14:25:59;0.47;;;0.40;;
21810;SDS011;11067;48.788;9.208;2024-02-14T14:28:25;3.28;;;0.93;;
21810;SDS011;11067;48.788;9.208;2024-02-14T14:30:52;0.90;;;0.50;;
21810;SDS011;11067;48.788;9.208;2024-02-14T14:33:19;0.77;;;0.60;;
21810;SDS011;11067;48.788;9.208;2024-02-14T14:35:45;1.67;;;0.70;;
21810;SDS011;11067;48.788;9.208;2024-02-14T14:38:10;0.73;;;0.45;;
21810;SDS011;11067;48.788;9.208;2024-02-14T14:40:36;1.90;;;0.60;;